sensor_id;sensor_type;location;lat;lon;timestamp;P1;durP1;ratioP1;P2;durP2;ratioP2
16460;SDS011;8341;42.048;24.650;2023-12-14T00:02:25;11.20;;;6.25;;
16460;SDS011;8341;42.048;24.650;2023-12-14T00:04:52;11.00;;;6.03;;
16460;SDS011;8341;42.048;24.650;2023-12-14T00:07:19;11.35;;;6.05;;
16460;SDS011;8341;42.048;24.650;2023-12-14T00:09:47;14.25;;;7.18;;
16460;SDS011;8341;42.048;24.650;2023-12-14T00:12:14;50.08;;;21.15;;
16460;SDS011;8341;42.048;24.650;2023-12-14T00:14:41;13.30;;;7.15;;
16460;SDS011;8341;42.048;24.650;2023-12-14T00:17:08;15.93;;;8.00;;
16460;SDS011;8341;42.048;24.650;2023-12-14T00:19:35;14.35;;;8.25;;
16460;SDS011;8341;42.048;24.650;2023-12-14T00:22:02;15.30;;;8.00;;
16460;SDS011;8341;42.048;24.650;2023-12-14T00:24:29;12.87;;;7.63;;
16460;SDS011;8341;42.048;24.650;2023-12-14T00:26:58;10.47;;;6.47;;
16460;SDS011;8341;42.048;24.650;2023-12-14T00:29:24;13.03;;;7.93;;
16460;SDS011;8341;42.048;24.650;2023-12-14T00:31:51;12.53;;;6.40;;
16460;SDS011;8341;42.048;24.650;2023-12-14T00:34:18;11.47;;;6.40;;
16460;SDS011;8341;42.048;24.650;2023-12-14T00:36:45;8.07;;;5.13;;
16460;SDS011;8341;42.048;24.650;2023-12-14T00:39:12;9.80;;;6.17;;
16460;SDS011;8341;42.048;24.650;2023-12-14T00:41:39;6.77;;;4.37;;
16460;SDS011;8341;42.048;24.650;2023-12-14T00:44:08;7.20;;;4.90;;
16460;SDS011;8341;42.048;24.650;2023-12-14T00:46:34;6.37;;;4.20;;
16460;SDS011;8341;42.048;24.650;2023-12-14T00:49:01;5.63;;;3.93;;
16460;SDS011;8341;42.048;24.650;2023-12-14T00:51:28;6.73;;;4.27;;
16460;SDS011;8341;42.048;24.650;2023-12-14T00:53:55;14.43;;;7.30;;
16460;SDS011;8341;42.048;24.650;2023-12-14T00:56:22;11.40;;;6.10;;
16460;SDS011;8341;42.048;24.650;2023-12-14T00:58:49;12.55;;;6.03;;
16460;SDS011;8341;42.048;24.650;2023-12-14T01:01:17;9.53;;;5.77;;
16460;SDS011;8341;42.048;24.650;2023-12-14T01:03:44;9.33;;;5.50;;
16460;SDS011;8341;42.048;24.650;2023-12-14T01:06:11;8.67;;;5.60;;
16460;SDS011;8341;42.048;24.650;2023-12-14T01:08:38;9.57;;;5.57;;
16460;SDS011;8341;42.048;24.650;2023-12-14T01:11:05;10.10;;;5.83;;
16460;SDS011;8341;42.048;24.650;2023-12-14T01:13:32;8.27;;;4.90;;
16460;SDS011;8341;42.048;24.650;2023-12-14T01:16:00;8.65;;;5.50;;
16460;SDS011;8341;42.048;24.650;2023-12-14T01:18:28;7.90;;;4.82;;
16460;SDS011;8341;42.048;24.650;2023-12-14T01:20:55;7.23;;;4.80;;
16460;SDS011;8341;42.048;24.650;2023-12-14T01:23:22;7.57;;;4.68;;
16460;SDS011;8341;42.048;24.650;2023-12-14T01:25:48;7.57;;;4.53;;
16460;SDS011;8341;42.048;24.650;2023-12-14T01:28:15;9.57;;;5.53;;
16460;SDS011;8341;42.048;24.650;2023-12-14T01:30:42;10.63;;;6.40;;
16460;SDS011;8341;42.048;24.650;2023-12-14T01:33:09;13.80;;;7.33;;
16460;SDS011;8341;42.048;24.650;2023-12-14T01:35:37;12.23;;;7.27;;
16460;SDS011;8341;42.048;24.650;2023-12-14T01:38:04;19.37;;;8.07;;
16460;SDS011;8341;42.048;24.650;2023-12-14T01:40:31;14.77;;;6.90;;
16460;SDS011;8341;42.048;24.650;2023-12-14T01:43:07;12.13;;;6.83;;
16460;SDS011;8341;42.048;24.650;2023-12-14T01:45:35;12.43;;;6.93;;
16460;SDS011;8341;42.048;24.650;2023-12-14T01:48:03;12.40;;;7.60;;
16460;SDS011;8341;42.048;24.650;2023-12-14T01:50:30;11.93;;;6.93;;
16460;SDS011;8341;42.048;24.650;2023-12-14T01:52:58;11.38;;;6.95;;
16460;SDS011;8341;42.048;24.650;2023-12-14T01:55:25;14.10;;;6.70;;
16460;SDS011;8341;42.048;24.650;2023-12-14T01:57:52;12.50;;;7.47;;
16460;SDS011;8341;42.048;24.650;2023-12-14T02:00:21;10.15;;;5.95;;
16460;SDS011;8341;42.048;24.650;2023-12-14T02:02:54;10.43;;;6.32;;
16460;SDS011;8341;42.048;24.650;2023-12-14T02:05:21;9.18;;;5.55;;
16460;SDS011;8341;42.048;24.650;2023-12-14T02:07:48;7.80;;;5.38;;
16460;SDS011;8341;42.048;24.650;2023-12-14T02:10:17;10.30;;;5.68;;
16460;SDS011;8341;42.048;24.650;2023-12-14T02:12:44;10.15;;;5.75;;
16460;SDS011;8341;42.048;24.650;2023-12-14T02:15:11;7.95;;;5.22;;
16460;SDS011;8341;42.048;24.650;2023-12-14T02:17:38;8.50;;;5.65;;
16460;SDS011;8341;42.048;24.650;2023-12-14T02:20:05;11.02;;;5.50;;
16460;SDS011;8341;42.048;24.650;2023-12-14T02:22:35;12.90;;;6.22;;
16460;SDS011;8341;42.048;24.650;2023-12-14T02:25:15;12.18;;;6.03;;
16460;SDS011;8341;42.048;24.650;2023-12-14T02:27:42;12.23;;;7.07;;
16460;SDS011;8341;42.048;24.650;2023-12-14T02:30:09;9.15;;;6.22;;
16460;SDS011;8341;42.048;24.650;2023-12-14T02:32:37;9.80;;;6.38;;
16460;SDS011;8341;42.048;24.650;2023-12-14T02:35:04;9.15;;;6.10;;
16460;SDS011;8341;42.048;24.650;2023-12-14T02:37:32;8.02;;;5.38;;
16460;SDS011;8341;42.048;24.650;2023-12-14T02:40:00;8.10;;;5.55;;
16460;SDS011;8341;42.048;24.650;2023-12-14T02:42:28;9.00;;;5.68;;
16460;SDS011;8341;42.048;24.650;2023-12-14T02:44:55;8.23;;;5.35;;
16460;SDS011;8341;42.048;24.650;2023-12-14T02:47:22;11.18;;;6.28;;
16460;SDS011;8341;42.048;24.650;2023-12-14T02:49:49;10.15;;;6.20;;
16460;SDS011;8341;42.048;24.650;2023-12-14T02:52:16;9.35;;;5.78;;
16460;SDS011;8341;42.048;24.650;2023-12-14T02:54:43;8.85;;;5.70;;
16460;SDS011;8341;42.048;24.650;2023-12-14T02:57:11;8.57;;;5.47;;
16460;SDS011;8341;42.048;24.650;2023-12-14T02:59:39;11.20;;;6.13;;
16460;SDS011;8341;42.048;24.650;2023-12-14T03:02:06;12.45;;;6.85;;
16460;SDS011;8341;42.048;24.650;2023-12-14T03:04:33;12.93;;;7.45;;
16460;SDS011;8341;42.048;24.650;2023-12-14T03:07:00;13.13;;;8.23;;
16460;SDS011;8341;42.048;24.650;2023-12-14T03:09:27;13.60;;;7.70;;
16460;SDS011;8341;42.048;24.650;2023-12-14T03:11:54;13.40;;;7.93;;
16460;SDS011;8341;42.048;24.650;2023-12-14T03:14:22;15.70;;;8.07;;
16460;SDS011;8341;42.048;24.650;2023-12-14T03:16:49;13.60;;;7.85;;
16460;SDS011;8341;42.048;24.650;2023-12-14T03:19:17;13.37;;;7.97;;
16460;SDS011;8341;42.048;24.650;2023-12-14T03:21:44;15.35;;;9.00;;
16460;SDS011;8341;42.048;24.650;2023-12-14T03:24:11;12.30;;;7.18;;
16460;SDS011;8341;42.048;24.650;2023-12-14T03:26:38;14.05;;;9.88;;
16460;SDS011;8341;42.048;24.650;2023-12-14T03:29:05;13.20;;;8.52;;
16460;SDS011;8341;42.048;24.650;2023-12-14T03:31:34;14.07;;;9.45;;
16460;SDS011;8341;42.048;24.650;2023-12-14T03:34:01;12.57;;;8.20;;
16460;SDS011;8341;42.048;24.650;2023-12-14T03:36:28;13.45;;;8.85;;
16460;SDS011;8341;42.048;24.650;2023-12-14T03:38:55;13.75;;;7.10;;
16460;SDS011;8341;42.048;24.650;2023-12-14T03:41:22;11.82;;;7.07;;
16460;SDS011;8341;42.048;24.650;2023-12-14T03:43:49;10.75;;;7.03;;
16460;SDS011;8341;42.048;24.650;2023-12-14T03:46:16;10.55;;;6.82;;
16460;SDS011;8341;42.048;24.650;2023-12-14T03:48:44;26.40;;;19.08;;
16460;SDS011;8341;42.048;24.650;2023-12-14T03:51:11;18.83;;;13.32;;
16460;SDS011;8341;42.048;24.650;2023-12-14T03:53:38;15.95;;;11.32;;
16460;SDS011;8341;42.048;24.650;2023-12-14T03:56:05;13.85;;;8.32;;
16460;SDS011;8341;42.048;24.650;2023-12-14T03:58:32;23.42;;;14.48;;
16460;SDS011;8341;42.048;24.650;2023-12-14T04:00:59;24.75;;;14.73;;
16460;SDS011;8341;42.048;24.650;2023-12-14T04:03:27;23.13;;;16.45;;
16460;SDS011;8341;42.048;24.650;2023-12-14T04:05:55;21.65;;;16.70;;
16460;SDS011;8341;42.048;24.650;2023-12-14T04:08:22;10.20;;;7.60;;
16460;SDS011;8341;42.048;24.650;2023-12-14T04:10:49;8.65;;;5.60;;
16460;SDS011;8341;42.048;24.650;2023-12-14T04:13:16;8.25;;;4.75;;
16460;SDS011;8341;42.048;24.650;2023-12-14T04:15:42;7.15;;;4.65;;
16460;SDS011;8341;42.048;24.650;2023-12-14T04:18:09;16.50;;;9.85;;
16460;SDS011;8341;42.048;24.650;2023-12-14T04:20:36;14.55;;;8.07;;
16460;SDS011;8341;42.048;24.650;2023-12-14T04:23:05;13.27;;;9.02;;
16460;SDS011;8341;42.048;24.650;2023-12-14T04:25:32;13.98;;;8.27;;
16460;SDS011;8341;42.048;24.650;2023-12-14T04:27:58;11.90;;;6.90;;
16460;SDS011;8341;42.048;24.650;2023-12-14T04:30:25;10.63;;;6.60;;
16460;SDS011;8341;42.048;24.650;2023-12-14T04:32:52;11.57;;;7.40;;
16460;SDS011;8341;42.048;24.650;2023-12-14T04:35:19;18.38;;;10.35;;
16460;SDS011;8341;42.048;24.650;2023-12-14T04:37:47;11.85;;;8.38;;
16460;SDS011;8341;42.048;24.650;2023-12-14T04:40:15;13.05;;;7.90;;
16460;SDS011;8341;42.048;24.650;2023-12-14T04:42:42;14.30;;;8.52;;
16460;SDS011;8341;42.048;24.650;2023-12-14T04:45:10;21.40;;;12.68;;
16460;SDS011;8341;42.048;24.650;2023-12-14T04:47:38;23.50;;;15.07;;
16460;SDS011;8341;42.048;24.650;2023-12-14T04:50:05;30.40;;;18.95;;
16460;SDS011;8341;42.048;24.650;2023-12-14T04:52:32;25.52;;;15.30;;
16460;SDS011;8341;42.048;24.650;2023-12-14T04:54:59;24.33;;;14.50;;
16460;SDS011;8341;42.048;24.650;2023-12-14T04:57:28;31.10;;;20.33;;
16460;SDS011;8341;42.048;24.650;2023-12-14T04:59:55;29.33;;;19.58;;
16460;SDS011;8341;42.048;24.650;2023-12-14T05:02:22;31.13;;;20.17;;
16460;SDS011;8341;42.048;24.650;2023-12-14T05:04:49;30.17;;;18.65;;
16460;SDS011;8341;42.048;24.650;2023-12-14T05:07:16;26.20;;;15.75;;
16460;SDS011;8341;42.048;24.650;2023-12-14T05:09:43;26.85;;;15.05;;
16460;SDS011;8341;42.048;24.650;2023-12-14T05:12:09;22.38;;;14.07;;
16460;SDS011;8341;42.048;24.650;2023-12-14T05:14:38;20.40;;;13.05;;
16460;SDS011;8341;42.048;24.650;2023-12-14T05:17:05;21.95;;;12.35;;
16460;SDS011;8341;42.048;24.650;2023-12-14T05:19:32;18.05;;;11.82;;
16460;SDS011;8341;42.048;24.650;2023-12-14T05:21:59;18.10;;;11.63;;
16460;SDS011;8341;42.048;24.650;2023-12-14T05:24:26;20.65;;;11.10;;
16460;SDS011;8341;42.048;24.650;2023-12-14T05:26:53;22.27;;;10.67;;
16460;SDS011;8341;42.048;24.650;2023-12-14T05:29:20;20.63;;;11.30;;
16460;SDS011;8341;42.048;24.650;2023-12-14T05:31:50;23.77;;;13.20;;
16460;SDS011;8341;42.048;24.650;2023-12-14T05:34:16;25.20;;;14.10;;
16460;SDS011;8341;42.048;24.650;2023-12-14T05:36:43;29.83;;;16.92;;
16460;SDS011;8341;42.048;24.650;2023-12-14T05:39:10;29.97;;;21.30;;
16460;SDS011;8341;42.048;24.650;2023-12-14T05:41:39;27.80;;;16.30;;
16460;SDS011;8341;42.048;24.650;2023-12-14T05:44:07;23.57;;;13.07;;
16460;SDS011;8341;42.048;24.650;2023-12-14T05:46:34;22.00;;;14.07;;
16460;SDS011;8341;42.048;24.650;2023-12-14T05:49:02;23.80;;;14.10;;
16460;SDS011;8341;42.048;24.650;2023-12-14T05:51:29;21.07;;;13.70;;
16460;SDS011;8341;42.048;24.650;2023-12-14T05:53:57;21.50;;;13.70;;
16460;SDS011;8341;42.048;24.650;2023-12-14T05:56:24;22.60;;;13.90;;
16460;SDS011;8341;42.048;24.650;2023-12-14T05:58:51;41.07;;;25.73;;
16460;SDS011;8341;42.048;24.650;2023-12-14T06:01:18;20.07;;;12.50;;
16460;SDS011;8341;42.048;24.650;2023-12-14T06:03:45;19.93;;;11.87;;
16460;SDS011;8341;42.048;24.650;2023-12-14T06:06:14;25.50;;;17.67;;
16460;SDS011;8341;42.048;24.650;2023-12-14T06:08:41;24.70;;;14.80;;
16460;SDS011;8341;42.048;24.650;2023-12-14T06:11:08;20.20;;;14.90;;
16460;SDS011;8341;42.048;24.650;2023-12-14T06:13:35;18.83;;;10.77;;
16460;SDS011;8341;42.048;24.650;2023-12-14T06:16:03;17.73;;;10.20;;
16460;SDS011;8341;42.048;24.650;2023-12-14T06:18:30;19.37;;;9.50;;
16460;SDS011;8341;42.048;24.650;2023-12-14T06:20:57;20.77;;;12.20;;
16460;SDS011;8341;42.048;24.650;2023-12-14T06:23:25;41.57;;;25.00;;
16460;SDS011;8341;42.048;24.650;2023-12-14T06:25:52;21.53;;;11.97;;
16460;SDS011;8341;42.048;24.650;2023-12-14T06:28:19;21.63;;;12.30;;
16460;SDS011;8341;42.048;24.650;2023-12-14T06:30:47;22.67;;;12.97;;
16460;SDS011;8341;42.048;24.650;2023-12-14T06:33:13;28.60;;;14.60;;
16460;SDS011;8341;42.048;24.650;2023-12-14T06:35:40;23.83;;;13.50;;
16460;SDS011;8341;42.048;24.650;2023-12-14T06:38:08;22.17;;;11.73;;
16460;SDS011;8341;42.048;24.650;2023-12-14T06:40:36;23.87;;;13.33;;
16460;SDS011;8341;42.048;24.650;2023-12-14T06:43:03;32.53;;;16.03;;
16460;SDS011;8341;42.048;24.650;2023-12-14T06:45:31;26.43;;;14.13;;
16460;SDS011;8341;42.048;24.650;2023-12-14T06:47:58;31.23;;;17.83;;
16460;SDS011;8341;42.048;24.650;2023-12-14T06:50:25;28.77;;;14.50;;
16460;SDS011;8341;42.048;24.650;2023-12-14T06:52:52;27.47;;;16.50;;
16460;SDS011;8341;42.048;24.650;2023-12-14T06:55:18;29.03;;;16.37;;
16460;SDS011;8341;42.048;24.650;2023-12-14T06:57:47;26.87;;;15.90;;
16460;SDS011;8341;42.048;24.650;2023-12-14T07:00:14;30.37;;;17.53;;
16460;SDS011;8341;42.048;24.650;2023-12-14T07:02:41;29.83;;;14.97;;
16460;SDS011;8341;42.048;24.650;2023-12-14T07:05:09;26.13;;;14.27;;
16460;SDS011;8341;42.048;24.650;2023-12-14T07:07:36;24.35;;;13.43;;
16460;SDS011;8341;42.048;24.650;2023-12-14T07:10:04;22.70;;;13.35;;
16460;SDS011;8341;42.048;24.650;2023-12-14T07:12:31;26.93;;;14.93;;
16460;SDS011;8341;42.048;24.650;2023-12-14T07:14:59;27.40;;;14.73;;
16460;SDS011;8341;42.048;24.650;2023-12-14T07:17:26;24.98;;;17.23;;
16460;SDS011;8341;42.048;24.650;2023-12-14T07:19:53;21.67;;;15.15;;
16460;SDS011;8341;42.048;24.650;2023-12-14T07:22:20;24.35;;;12.32;;
16460;SDS011;8341;42.048;24.650;2023-12-14T07:24:47;19.85;;;12.10;;
16460;SDS011;8341;42.048;24.650;2023-12-14T07:27:14;20.55;;;13.13;;
16460;SDS011;8341;42.048;24.650;2023-12-14T07:29:41;18.20;;;11.88;;
16460;SDS011;8341;42.048;24.650;2023-12-14T07:32:09;21.90;;;13.43;;
16460;SDS011;8341;42.048;24.650;2023-12-14T07:34:37;19.10;;;11.27;;
16460;SDS011;8341;42.048;24.650;2023-12-14T07:37:04;21.20;;;12.93;;
16460;SDS011;8341;42.048;24.650;2023-12-14T07:39:31;33.10;;;19.17;;
16460;SDS011;8341;42.048;24.650;2023-12-14T07:41:58;31.38;;;19.85;;
16460;SDS011;8341;42.048;24.650;2023-12-14T07:44:26;40.60;;;26.60;;
16460;SDS011;8341;42.048;24.650;2023-12-14T07:46:55;45.58;;;30.35;;
16460;SDS011;8341;42.048;24.650;2023-12-14T07:49:23;38.50;;;25.00;;
16460;SDS011;8341;42.048;24.650;2023-12-14T07:51:50;40.53;;;26.75;;
16460;SDS011;8341;42.048;24.650;2023-12-14T07:54:18;43.00;;;27.88;;
16460;SDS011;8341;42.048;24.650;2023-12-14T07:56:45;41.88;;;26.08;;
16460;SDS011;8341;42.048;24.650;2023-12-14T07:59:11;31.45;;;21.20;;
16460;SDS011;8341;42.048;24.650;2023-12-14T08:01:39;37.08;;;24.42;;
16460;SDS011;8341;42.048;24.650;2023-12-14T08:04:06;42.83;;;27.23;;
16460;SDS011;8341;42.048;24.650;2023-12-14T08:06:36;32.78;;;21.40;;
16460;SDS011;8341;42.048;24.650;2023-12-14T08:09:04;19.75;;;13.38;;
16460;SDS011;8341;42.048;24.650;2023-12-14T08:11:31;24.13;;;15.30;;
16460;SDS011;8341;42.048;24.650;2023-12-14T08:13:58;23.55;;;15.07;;
16460;SDS011;8341;42.048;24.650;2023-12-14T08:16:25;23.77;;;15.55;;
16460;SDS011;8341;42.048;24.650;2023-12-14T08:18:52;24.77;;;17.17;;
16460;SDS011;8341;42.048;24.650;2023-12-14T08:21:19;37.05;;;23.85;;
16460;SDS011;8341;42.048;24.650;2023-12-14T08:23:47;32.15;;;20.95;;
16460;SDS011;8341;42.048;24.650;2023-12-14T08:26:14;24.30;;;15.93;;
16460;SDS011;8341;42.048;24.650;2023-12-14T08:28:41;27.25;;;17.48;;
16460;SDS011;8341;42.048;24.650;2023-12-14T08:31:09;33.47;;;19.25;;
16460;SDS011;8341;42.048;24.650;2023-12-14T08:33:37;28.00;;;18.48;;
16460;SDS011;8341;42.048;24.650;2023-12-14T08:36:04;30.05;;;18.80;;
16460;SDS011;8341;42.048;24.650;2023-12-14T08:38:31;28.45;;;18.67;;
16460;SDS011;8341;42.048;24.650;2023-12-14T08:41:00;19.45;;;14.60;;
16460;SDS011;8341;42.048;24.650;2023-12-14T08:43:27;21.15;;;14.00;;
16460;SDS011;8341;42.048;24.650;2023-12-14T08:45:53;24.38;;;15.60;;
16460;SDS011;8341;42.048;24.650;2023-12-14T08:48:20;24.52;;;15.77;;
16460;SDS011;8341;42.048;24.650;2023-12-14T08:50:47;27.73;;;17.85;;
16460;SDS011;8341;42.048;24.650;2023-12-14T08:53:14;30.95;;;18.98;;
16460;SDS011;8341;42.048;24.650;2023-12-14T08:55:41;28.23;;;19.17;;
16460;SDS011;8341;42.048;24.650;2023-12-14T08:58:09;29.98;;;19.75;;
16460;SDS011;8341;42.048;24.650;2023-12-14T09:00:35;31.13;;;20.05;;
16460;SDS011;8341;42.048;24.650;2023-12-14T09:03:03;30.70;;;20.73;;
16460;SDS011;8341;42.048;24.650;2023-12-14T09:05:30;31.48;;;21.63;;
16460;SDS011;8341;42.048;24.650;2023-12-14T09:07:57;30.80;;;19.52;;
16460;SDS011;8341;42.048;24.650;2023-12-14T09:10:24;34.60;;;21.05;;
16460;SDS011;8341;42.048;24.650;2023-12-14T09:12:51;33.80;;;21.40;;
16460;SDS011;8341;42.048;24.650;2023-12-14T09:15:20;33.17;;;21.08;;
16460;SDS011;8341;42.048;24.650;2023-12-14T09:17:47;30.55;;;20.60;;
16460;SDS011;8341;42.048;24.650;2023-12-14T09:20:14;33.22;;;22.00;;
16460;SDS011;8341;42.048;24.650;2023-12-14T09:22:41;33.70;;;21.73;;
16460;SDS011;8341;42.048;24.650;2023-12-14T09:25:08;32.00;;;22.50;;
16460;SDS011;8341;42.048;24.650;2023-12-14T09:27:35;34.45;;;20.50;;
16460;SDS011;8341;42.048;24.650;2023-12-14T09:30:02;30.98;;;20.00;;
16460;SDS011;8341;42.048;24.650;2023-12-14T09:32:32;32.75;;;20.50;;
16460;SDS011;8341;42.048;24.650;2023-12-14T09:34:59;29.23;;;19.88;;
16460;SDS011;8341;42.048;24.650;2023-12-14T09:37:26;30.38;;;20.17;;
16460;SDS011;8341;42.048;24.650;2023-12-14T09:39:53;29.85;;;20.27;;
16460;SDS011;8341;42.048;24.650;2023-12-14T09:42:20;28.08;;;20.10;;
16460;SDS011;8341;42.048;24.650;2023-12-14T09:44:48;34.10;;;20.93;;
16460;SDS011;8341;42.048;24.650;2023-12-14T09:47:16;48.58;;;31.70;;
16460;SDS011;8341;42.048;24.650;2023-12-14T09:49:44;50.35;;;33.63;;
16460;SDS011;8341;42.048;24.650;2023-12-14T09:52:11;43.75;;;28.58;;
16460;SDS011;8341;42.048;24.650;2023-12-14T09:54:39;44.20;;;29.15;;
16460;SDS011;8341;42.048;24.650;2023-12-14T09:57:06;37.65;;;25.30;;
16460;SDS011;8341;42.048;24.650;2023-12-14T09:59:32;45.08;;;26.65;;
16460;SDS011;8341;42.048;24.650;2023-12-14T10:02:09;48.70;;;31.70;;
16460;SDS011;8341;42.048;24.650;2023-12-14T10:04:37;48.35;;;32.45;;
16460;SDS011;8341;42.048;24.650;2023-12-14T10:07:05;46.17;;;30.15;;
16460;SDS011;8341;42.048;24.650;2023-12-14T10:09:33;27.80;;;18.27;;
16460;SDS011;8341;42.048;24.650;2023-12-14T10:12:03;29.33;;;19.20;;
16460;SDS011;8341;42.048;24.650;2023-12-14T10:14:31;49.30;;;33.55;;
16460;SDS011;8341;42.048;24.650;2023-12-14T10:16:59;50.33;;;34.47;;
16460;SDS011;8341;42.048;24.650;2023-12-14T10:19:41;49.17;;;32.05;;
16460;SDS011;8341;42.048;24.650;2023-12-14T10:22:10;50.95;;;33.72;;
16460;SDS011;8341;42.048;24.650;2023-12-14T10:24:37;45.05;;;31.45;;
16460;SDS011;8341;42.048;24.650;2023-12-14T10:27:04;45.55;;;28.20;;
16460;SDS011;8341;42.048;24.650;2023-12-14T10:29:33;45.28;;;31.50;;
16460;SDS011;8341;42.048;24.650;2023-12-14T10:32:01;43.65;;;29.25;;
16460;SDS011;8341;42.048;24.650;2023-12-14T10:34:31;44.13;;;27.92;;
16460;SDS011;8341;42.048;24.650;2023-12-14T10:36:58;45.80;;;28.17;;
16460;SDS011;8341;42.048;24.650;2023-12-14T10:39:27;41.38;;;27.92;;
16460;SDS011;8341;42.048;24.650;2023-12-14T10:41:56;45.75;;;30.25;;
16460;SDS011;8341;42.048;24.650;2023-12-14T10:44:25;43.47;;;29.40;;
16460;SDS011;8341;42.048;24.650;2023-12-14T10:46:54;44.15;;;30.67;;
16460;SDS011;8341;42.048;24.650;2023-12-14T10:49:24;46.33;;;28.98;;
16460;SDS011;8341;42.048;24.650;2023-12-14T10:51:52;41.00;;;26.85;;
16460;SDS011;8341;42.048;24.650;2023-12-14T10:54:22;45.05;;;28.17;;
16460;SDS011;8341;42.048;24.650;2023-12-14T10:56:53;46.67;;;30.85;;
16460;SDS011;8341;42.048;24.650;2023-12-14T10:59:21;45.03;;;29.73;;
16460;SDS011;8341;42.048;24.650;2023-12-14T11:01:51;82.95;;;46.35;;
16460;SDS011;8341;42.048;24.650;2023-12-14T11:04:18;43.50;;;30.02;;
16460;SDS011;8341;42.048;24.650;2023-12-14T11:06:45;45.45;;;29.80;;
16460;SDS011;8341;42.048;24.650;2023-12-14T11:09:13;43.10;;;29.33;;
16460;SDS011;8341;42.048;24.650;2023-12-14T11:11:47;47.03;;;29.33;;
16460;SDS011;8341;42.048;24.650;2023-12-14T11:14:25;48.40;;;29.77;;
16460;SDS011;8341;42.048;24.650;2023-12-14T11:16:53;43.63;;;29.85;;
16460;SDS011;8341;42.048;24.650;2023-12-14T11:19:28;41.20;;;28.65;;
16460;SDS011;8341;42.048;24.650;2023-12-14T11:22:11;41.47;;;27.83;;
16460;SDS011;8341;42.048;24.650;2023-12-14T11:24:50;56.10;;;37.80;;
16460;SDS011;8341;42.048;24.650;2023-12-14T11:27:22;49.80;;;32.17;;
16460;SDS011;8341;42.048;24.650;2023-12-14T11:29:53;44.28;;;30.42;;
16460;SDS011;8341;42.048;24.650;2023-12-14T11:32:19;45.30;;;30.90;;
16460;SDS011;8341;42.048;24.650;2023-12-14T11:34:47;50.50;;;33.22;;
16460;SDS011;8341;42.048;24.650;2023-12-14T11:37:14;48.47;;;31.92;;
16460;SDS011;8341;42.048;24.650;2023-12-14T11:39:40;45.85;;;32.85;;
16460;SDS011;8341;42.048;24.650;2023-12-14T11:42:09;44.80;;;31.23;;
16460;SDS011;8341;42.048;24.650;2023-12-14T11:44:37;43.70;;;31.90;;
16460;SDS011;8341;42.048;24.650;2023-12-14T11:47:07;42.40;;;29.77;;
16460;SDS011;8341;42.048;24.650;2023-12-14T11:49:34;42.53;;;29.42;;
16460;SDS011;8341;42.048;24.650;2023-12-14T11:52:02;37.78;;;27.35;;
16460;SDS011;8341;42.048;24.650;2023-12-14T11:54:30;41.92;;;28.17;;
16460;SDS011;8341;42.048;24.650;2023-12-14T11:56:57;41.05;;;29.02;;
16460;SDS011;8341;42.048;24.650;2023-12-14T11:59:28;40.92;;;28.23;;
16460;SDS011;8341;42.048;24.650;2023-12-14T12:01:56;39.28;;;27.17;;
16460;SDS011;8341;42.048;24.650;2023-12-14T12:04:24;39.80;;;27.08;;
16460;SDS011;8341;42.048;24.650;2023-12-14T12:06:58;39.88;;;26.27;;
16460;SDS011;8341;42.048;24.650;2023-12-14T12:09:36;37.65;;;25.58;;
16460;SDS011;8341;42.048;24.650;2023-12-14T12:12:07;37.83;;;25.60;;
16460;SDS011;8341;42.048;24.650;2023-12-14T12:14:36;37.28;;;25.45;;
16460;SDS011;8341;42.048;24.650;2023-12-14T12:17:05;41.38;;;26.73;;
16460;SDS011;8341;42.048;24.650;2023-12-14T12:19:33;40.75;;;24.98;;
16460;SDS011;8341;42.048;24.650;2023-12-14T12:22:00;44.55;;;28.23;;
16460;SDS011;8341;42.048;24.650;2023-12-14T12:24:27;39.97;;;26.77;;
16460;SDS011;8341;42.048;24.650;2023-12-14T12:26:54;34.58;;;22.70;;
16460;SDS011;8341;42.048;24.650;2023-12-14T12:29:21;33.22;;;23.55;;
16460;SDS011;8341;42.048;24.650;2023-12-14T12:31:48;29.85;;;21.45;;
16460;SDS011;8341;42.048;24.650;2023-12-14T12:34:16;31.52;;;23.27;;
16460;SDS011;8341;42.048;24.650;2023-12-14T12:36:43;35.42;;;24.20;;
16460;SDS011;8341;42.048;24.650;2023-12-14T12:39:10;40.97;;;26.85;;
16460;SDS011;8341;42.048;24.650;2023-12-14T12:41:37;30.88;;;21.80;;
16460;SDS011;8341;42.048;24.650;2023-12-14T12:44:03;35.97;;;23.65;;
16460;SDS011;8341;42.048;24.650;2023-12-14T12:46:33;34.22;;;23.02;;
16460;SDS011;8341;42.048;24.650;2023-12-14T12:49:00;33.67;;;23.25;;
16460;SDS011;8341;42.048;24.650;2023-12-14T12:51:29;33.38;;;22.45;;
16460;SDS011;8341;42.048;24.650;2023-12-14T12:53:57;30.92;;;22.60;;
16460;SDS011;8341;42.048;24.650;2023-12-14T12:56:24;42.75;;;26.90;;
16460;SDS011;8341;42.048;24.650;2023-12-14T12:58:51;42.25;;;27.27;;
16460;SDS011;8341;42.048;24.650;2023-12-14T13:01:19;43.75;;;29.20;;
16460;SDS011;8341;42.048;24.650;2023-12-14T13:03:47;45.55;;;31.02;;
16460;SDS011;8341;42.048;24.650;2023-12-14T13:06:18;28.90;;;20.33;;
16460;SDS011;8341;42.048;24.650;2023-12-14T13:08:46;19.50;;;13.73;;
16460;SDS011;8341;42.048;24.650;2023-12-14T13:11:13;30.00;;;22.77;;
16460;SDS011;8341;42.048;24.650;2023-12-14T13:13:40;25.02;;;18.10;;
16460;SDS011;8341;42.048;24.650;2023-12-14T13:16:08;29.88;;;20.27;;
16460;SDS011;8341;42.048;24.650;2023-12-14T13:18:35;24.17;;;17.50;;
16460;SDS011;8341;42.048;24.650;2023-12-14T13:21:03;27.65;;;19.70;;
16460;SDS011;8341;42.048;24.650;2023-12-14T13:23:30;29.17;;;20.20;;
16460;SDS011;8341;42.048;24.650;2023-12-14T13:25:58;30.00;;;20.10;;
16460;SDS011;8341;42.048;24.650;2023-12-14T13:28:25;32.83;;;21.30;;
16460;SDS011;8341;42.048;24.650;2023-12-14T13:30:52;33.80;;;21.63;;
16460;SDS011;8341;42.048;24.650;2023-12-14T13:33:19;32.17;;;20.38;;
16460;SDS011;8341;42.048;24.650;2023-12-14T13:35:46;111.00;;;74.85;;
16460;SDS011;8341;42.048;24.650;2023-12-14T13:38:13;36.95;;;24.88;;
16460;SDS011;8341;42.048;24.650;2023-12-14T13:40:41;48.97;;;33.00;;
16460;SDS011;8341;42.048;24.650;2023-12-14T13:43:09;35.33;;;23.65;;
16460;SDS011;8341;42.048;24.650;2023-12-14T13:45:36;28.08;;;20.33;;
16460;SDS011;8341;42.048;24.650;2023-12-14T13:48:04;262.08;;;133.48;;
16460;SDS011;8341;42.048;24.650;2023-12-14T13:50:32;88.22;;;48.88;;
16460;SDS011;8341;42.048;24.650;2023-12-14T13:52:59;263.95;;;126.07;;
16460;SDS011;8341;42.048;24.650;2023-12-14T13:55:27;112.45;;;57.95;;
16460;SDS011;8341;42.048;24.650;2023-12-14T13:57:53;56.80;;;35.35;;
16460;SDS011;8341;42.048;24.650;2023-12-14T14:00:24;89.93;;;55.17;;
16460;SDS011;8341;42.048;24.650;2023-12-14T14:02:51;60.30;;;39.83;;
16460;SDS011;8341;42.048;24.650;2023-12-14T14:05:18;38.97;;;25.17;;
16460;SDS011;8341;42.048;24.650;2023-12-14T14:07:45;66.18;;;40.38;;
16460;SDS011;8341;42.048;24.650;2023-12-14T14:10:12;65.25;;;41.83;;
16460;SDS011;8341;42.048;24.650;2023-12-14T14:12:39;66.05;;;47.15;;
16460;SDS011;8341;42.048;24.650;2023-12-14T14:15:07;63.92;;;42.20;;
16460;SDS011;8341;42.048;24.650;2023-12-14T14:17:36;34.00;;;23.65;;
16460;SDS011;8341;42.048;24.650;2023-12-14T14:20:03;39.42;;;25.13;;
16460;SDS011;8341;42.048;24.650;2023-12-14T14:22:31;45.10;;;29.50;;
16460;SDS011;8341;42.048;24.650;2023-12-14T14:24:59;147.98;;;91.82;;
16460;SDS011;8341;42.048;24.650;2023-12-14T14:27:25;73.60;;;45.58;;
16460;SDS011;8341;42.048;24.650;2023-12-14T14:29:52;61.63;;;40.78;;